createdAt,value
2019-06-08T00:00:35.962Z,78.55
2019-06-08T00:01:41.465Z,77.69
2019-06-08T00:02:47.007Z,77.59
2019-06-08T00:03:52.550Z,77.50
2019-06-08T00:04:58.086Z,77.59
2019-06-08T00:06:03.629Z,77.69
2019-06-08T00:07:09.170Z,77.88
2019-06-08T00:08:14.846Z,77.69
2019-06-08T00:09:20.821Z,77.40
2019-06-08T00:10:26.058Z,77.31
2019-06-08T00:11:31.335Z,77.59
2019-06-08T00:12:36.875Z,77.21
2019-06-08T00:13:42.419Z,77.11
2019-06-08T00:14:47.954Z,77.31
2019-06-08T00:15:53.497Z,77.11
2019-06-08T00:16:59.039Z,76.73
2019-06-08T00:18:04.581Z,76.64
2019-06-08T00:19:10.116Z,76.64
2019-06-08T00:20:15.661Z,76.35
2019-06-08T00:21:21.752Z,76.54
2019-06-08T00:22:26.746Z,76.54
2019-06-08T00:23:32.285Z,76.44
2019-06-08T00:24:37.838Z,76.06
2019-06-08T00:25:43.365Z,76.15
2019-06-08T00:26:48.906Z,76.06
2019-06-08T00:27:54.449Z,75.96
2019-06-08T00:28:59.995Z,76.44
2019-06-08T00:30:05.529Z,76.25
2019-06-08T00:31:11.080Z,76.73
2019-06-08T00:32:16.612Z,76.25
2019-06-08T00:33:22.617Z,76.35
2019-06-08T00:34:27.694Z,76.64
2019-06-08T00:35:33.234Z,76.92
2019-06-08T00:36:38.776Z,76.73
2019-06-08T00:37:44.315Z,76.54
2019-06-08T00:38:49.855Z,76.25
2019-06-08T00:39:55.399Z,76.15
2019-06-08T00:41:00.935Z,76.82
2019-06-08T00:42:06.502Z,77.02
2019-06-08T00:43:12.020Z,77.11
2019-06-08T00:44:17.567Z,77.02
2019-06-08T00:45:23.586Z,77.02
2019-06-08T00:46:28.643Z,77.59
2019-06-08T00:47:46.971Z,77.31
2019-06-08T00:48:39.725Z,77.97
2019-06-08T00:49:45.294Z,77.97
2019-06-08T00:50:50.806Z,78.17
2019-06-08T00:51:56.345Z,77.97
2019-06-08T00:53:01.884Z,77.88
2019-06-08T00:54:07.429Z,77.97
2019-06-08T00:55:12.974Z,77.78
2019-06-08T00:57:24.052Z,77.31
2019-06-08T00:58:30.520Z,77.50
2019-06-08T00:59:35.131Z,77.31
2019-06-08T01:00:40.675Z,77.59
2019-06-08T01:01:46.214Z,77.78
2019-06-08T01:02:51.758Z,78.36
2019-06-08T01:03:57.299Z,78.55
2019-06-08T01:05:02.838Z,78.74
2019-06-08T01:06:08.379Z,79.13
2019-06-08T01:07:13.921Z,79.51
2019-06-08T01:08:20.690Z,79.99
2019-06-08T01:09:26.245Z,79.51
2019-06-08T01:10:30.542Z,79.89
2019-06-08T01:11:36.084Z,80.47
2019-06-08T01:12:41.622Z,80.27
2019-06-08T01:13:47.163Z,80.56
2019-06-08T01:14:52.705Z,80.85
2019-06-08T01:15:58.258Z,80.76
2019-06-08T01:17:03.786Z,80.56
2019-06-08T01:18:09.328Z,81.13
2019-06-08T01:19:14.873Z,80.94
2019-06-08T01:20:21.736Z,81.13
2019-06-08T01:21:25.951Z,81.81
2019-06-08T01:22:31.496Z,81.43
2019-06-08T01:23:37.029Z,81.81
2019-06-08T01:24:42.573Z,81.90
2019-06-08T01:25:48.116Z,81.71
2019-06-08T01:26:53.655Z,81.52
2019-06-08T01:27:59.195Z,81.62
2019-06-08T01:29:04.734Z,81.71
2019-06-08T01:30:10.279Z,81.71
2019-06-08T01:31:15.817Z,81.81
2019-06-08T01:32:22.295Z,81.90
2019-06-08T01:33:26.897Z,81.90
2019-06-08T01:34:32.438Z,81.81
2019-06-08T01:35:37.980Z,82.57
2019-06-08T01:36:43.523Z,82.19
2019-06-08T01:37:49.063Z,82.48
2019-06-08T01:38:54.600Z,82.38
2019-06-08T01:40:00.148Z,82.96
2019-06-08T01:41:05.684Z,82.38
2019-06-08T01:42:11.227Z,82.57
2019-06-08T01:43:16.766Z,82.57
2019-06-08T01:44:23.487Z,82.57
2019-06-08T01:45:27.922Z,82.76
2019-06-08T01:46:33.385Z,82.57
2019-06-08T01:47:38.929Z,82.43
2019-06-08T01:48:44.470Z,82.29
2019-06-08T01:49:50.011Z,83.01
2019-06-08T01:50:55.557Z,83.20
2019-06-08T01:52:01.096Z,82.82
2019-06-08T01:53:06.646Z,83.39
2019-06-08T01:54:12.171Z,83.49
2019-06-08T01:55:17.714Z,83.59
2019-06-08T01:56:23.256Z,84.55
2019-06-08T01:57:29.362Z,85.31
2019-06-08T01:58:34.334Z,85.60
2019-06-08T01:59:39.872Z,85.50
2019-06-08T02:00:45.414Z,87.23
2019-06-08T02:01:50.952Z,87.51
2019-06-08T02:02:56.495Z,88.09
2019-06-08T02:04:02.043Z,88.85
2019-06-08T02:05:07.588Z,88.95
2019-06-08T02:06:13.120Z,89.52
2019-06-08T02:07:18.660Z,90.58
2019-06-08T02:08:24.451Z,90.29
2019-06-08T02:09:30.618Z,91.25
2019-06-08T02:10:35.279Z,91.05
2019-06-08T02:11:40.826Z,91.05
2019-06-08T02:12:46.359Z,91.05
2019-06-08T02:13:51.909Z,91.25
2019-06-08T02:14:57.445Z,91.77
2019-06-08T02:16:03.002Z,91.53
2019-06-08T02:17:08.525Z,91.53
2019-06-08T02:18:14.065Z,92.49
2019-06-08T02:19:19.608Z,92.40
2019-06-08T02:20:26.282Z,92.40
2019-06-08T02:21:30.890Z,92.73
2019-06-08T02:22:36.233Z,93.02
2019-06-08T02:23:41.771Z,93.30
2019-06-08T02:24:47.316Z,93.30
2019-06-08T02:25:52.850Z,93.79
2019-06-08T02:26:58.391Z,93.40
2019-06-08T02:28:03.923Z,93.79
2019-06-08T02:29:09.470Z,93.69
2019-06-08T02:30:15.028Z,93.88
2019-06-08T02:31:20.553Z,93.69
2019-06-08T02:32:26.092Z,93.98
2019-06-08T02:33:32.501Z,93.12
2019-06-08T02:34:38.176Z,93.69
2019-06-08T02:35:42.716Z,93.69
2019-06-08T02:36:48.256Z,93.88
2019-06-08T02:37:53.809Z,93.21
2019-06-08T02:38:59.339Z,93.50
2019-06-08T02:40:04.878Z,93.40
2019-06-08T02:41:10.418Z,93.79
2019-06-08T02:42:15.956Z,93.79
2019-06-08T02:43:21.494Z,93.88
2019-06-08T02:44:28.293Z,93.40
2019-06-08T02:45:34.092Z,93.59
2019-06-08T02:46:40.123Z,93.69
2019-06-08T02:47:43.662Z,93.59
2019-06-08T02:49:03.599Z,93.79
2019-06-08T02:49:54.744Z,93.69
2019-06-08T02:51:00.279Z,93.88
2019-06-08T02:52:05.818Z,94.36
2019-06-08T02:53:11.361Z,94.55
2019-06-08T02:54:16.904Z,94.36
2019-06-08T02:55:22.450Z,94.65
2019-06-08T02:56:27.979Z,94.45
2019-06-08T02:57:35.451Z,94.36
2019-06-08T02:58:40.815Z,94.45
2019-06-08T02:59:44.611Z,95.03
2019-06-08T03:00:50.140Z,94.74
2019-06-08T03:01:55.683Z,95.22
2019-06-08T03:03:01.226Z,95.12
2019-06-08T03:04:06.783Z,94.74
2019-06-08T03:05:12.309Z,94.55
2019-06-08T03:06:17.853Z,95.22
2019-06-08T03:07:23.388Z,96.13
2019-06-08T03:08:28.927Z,96.18
2019-06-08T03:09:34.743Z,95.84
2019-06-08T03:10:41.300Z,95.75
2019-06-08T03:11:45.543Z,95.70
2019-06-08T03:12:51.087Z,96.13
2019-06-08T03:13:56.628Z,96.89
2019-06-08T03:15:02.163Z,97.85
2019-06-08T03:16:07.709Z,98.24
2019-06-08T03:17:13.244Z,97.66
2019-06-08T03:18:18.785Z,98.33
2019-06-08T03:19:24.338Z,98.71
2019-06-08T03:20:31.590Z,98.33
2019-06-08T03:21:36.305Z,99.29
2019-06-08T03:22:43.625Z,99.19
2019-06-08T03:23:46.488Z,98.71
2019-06-08T03:24:52.027Z,98.90
2019-06-08T03:25:57.567Z,99.96
2019-06-08T03:27:03.107Z,99.67
2019-06-08T03:28:08.651Z,99.48
2019-06-08T03:29:14.191Z,99.86
2019-06-08T03:30:20.092Z,99.57
2019-06-08T03:31:25.267Z,99.76
2019-06-08T03:32:30.815Z,98.90
2019-06-08T03:33:43.219Z,99.10
2019-06-08T03:34:51.181Z,99.19
2019-06-08T03:35:56.402Z,99.96
2019-06-08T03:36:56.751Z,98.90
2019-06-08T03:37:58.510Z,99.76
2019-06-08T03:39:04.045Z,99.67
2019-06-08T03:40:09.609Z,99.67
2019-06-08T03:41:15.131Z,99.99
2019-06-08T03:42:20.670Z,99.99
2019-06-08T03:43:26.211Z,99.99
2019-06-08T03:44:31.749Z,99.99
2019-06-08T03:45:38.234Z,99.99
2019-06-08T03:46:44.109Z,99.99
2019-06-08T03:47:48.372Z,99.99
2019-06-08T03:48:53.912Z,99.99
2019-06-08T03:49:59.462Z,99.99
2019-06-08T03:51:04.990Z,99.99
2019-06-08T03:52:10.534Z,99.99
2019-06-08T03:53:16.068Z,99.99
2019-06-08T03:54:21.614Z,99.99
2019-06-08T03:55:27.155Z,99.99
2019-06-08T03:56:32.690Z,99.99
2019-06-08T03:57:39.948Z,99.99
2019-06-08T03:58:46.051Z,99.99
2019-06-08T03:59:49.312Z,99.99
2019-06-08T04:00:54.854Z,99.99
2019-06-08T04:02:00.390Z,99.99
2019-06-08T04:03:05.932Z,99.99
2019-06-08T04:04:11.473Z,99.99
2019-06-08T04:05:17.007Z,99.99
2019-06-08T04:06:22.553Z,99.99
2019-06-08T04:07:28.105Z,99.99
2019-06-08T04:08:33.633Z,99.99
2019-06-08T04:09:39.818Z,99.99
2019-06-08T04:10:46.848Z,99.99
2019-06-08T04:11:50.384Z,99.99
2019-06-08T04:12:55.799Z,99.99
2019-06-08T04:14:01.334Z,99.99
2019-06-08T04:15:06.879Z,99.99
2019-06-08T04:16:12.411Z,99.99
2019-06-08T04:17:17.950Z,99.99
2019-06-08T04:18:23.493Z,99.99
2019-06-08T04:19:29.032Z,99.99
2019-06-08T04:20:34.579Z,99.99
2019-06-08T04:21:40.317Z,99.99
2019-06-08T04:22:47.199Z,99.99
2019-06-08T04:23:51.206Z,99.99
2019-06-08T04:24:56.734Z,99.99
2019-06-08T04:26:02.275Z,99.99
2019-06-08T04:27:07.812Z,99.99
2019-06-08T04:28:13.369Z,99.99
2019-06-08T04:29:18.897Z,99.99
2019-06-08T04:30:24.436Z,99.99
2019-06-08T04:31:29.972Z,99.99
2019-06-08T04:32:35.515Z,99.99
2019-06-08T04:33:42.085Z,99.99
2019-06-08T04:34:47.544Z,99.99
2019-06-08T04:35:52.135Z,99.99
2019-06-08T04:36:57.671Z,99.99
2019-06-08T04:38:03.216Z,99.99
2019-06-08T04:39:08.757Z,99.99
2019-06-08T04:40:14.294Z,99.99
2019-06-08T04:41:19.832Z,99.99
2019-06-08T04:42:25.371Z,99.99
2019-06-08T04:43:30.911Z,99.99
2019-06-08T04:44:38.415Z,99.99
2019-06-08T04:45:43.541Z,99.99
2019-06-08T04:46:49.420Z,99.99
2019-06-08T04:47:53.075Z,99.99
2019-06-08T04:48:58.615Z,99.99
2019-06-08T04:50:20.774Z,99.99
2019-06-08T04:51:09.692Z,99.99
2019-06-08T04:52:15.240Z,99.99
2019-06-08T04:53:20.780Z,99.99
2019-06-08T04:54:26.315Z,99.99
2019-06-08T04:55:31.859Z,99.99
2019-06-08T04:56:38.597Z,99.99
2019-06-08T04:57:43.349Z,99.99
2019-06-08T04:58:50.800Z,99.99
2019-06-08T04:59:54.017Z,99.99
2019-06-08T05:00:59.557Z,99.99
2019-06-08T05:02:05.092Z,99.99
2019-06-08T05:03:19.284Z,99.99
2019-06-08T05:05:20.673Z,99.99
2019-06-08T05:06:26.178Z,99.99
2019-06-08T05:07:31.720Z,99.99
2019-06-08T05:08:38.931Z,99.99
2019-06-08T05:09:43.061Z,99.99
2019-06-08T05:10:49.639Z,99.99
2019-06-08T05:11:53.877Z,99.99
2019-06-08T05:12:59.413Z,99.99
2019-06-08T05:14:04.952Z,99.99
2019-06-08T05:15:10.496Z,99.99
2019-06-08T05:16:16.036Z,99.99
2019-06-08T05:17:21.573Z,99.99
2019-06-08T05:18:27.113Z,99.99
2019-06-08T05:19:33.025Z,99.99
2019-06-08T05:20:40.964Z,99.99
2019-06-08T05:21:43.735Z,99.99
2019-06-08T05:22:49.772Z,99.99
2019-06-08T05:23:58.711Z,99.99
2019-06-08T05:25:00.355Z,99.99
2019-06-08T05:26:05.896Z,99.99
2019-06-08T05:27:11.433Z,99.99
2019-06-08T05:28:16.967Z,99.99
2019-06-08T05:29:22.507Z,99.99
2019-06-08T05:30:28.257Z,99.99
2019-06-08T05:31:33.589Z,99.99
2019-06-08T05:32:39.467Z,99.99
2019-06-08T05:33:45.515Z,99.99
2019-06-08T05:34:50.205Z,99.99
2019-06-08T05:35:55.744Z,99.99
2019-06-08T05:37:01.287Z,99.99
2019-06-08T05:38:06.823Z,99.99
2019-06-08T05:39:12.364Z,99.99
2019-06-08T05:40:17.908Z,99.99
2019-06-08T05:41:24.320Z,99.99
2019-06-08T05:42:28.991Z,99.99
2019-06-08T05:43:34.527Z,99.99
2019-06-08T05:44:40.065Z,99.99
2019-06-08T05:45:45.736Z,99.99
2019-06-08T05:46:51.150Z,99.99
2019-06-08T05:47:56.696Z,99.99
2019-06-08T05:49:02.235Z,99.99
2019-06-08T05:50:07.771Z,99.99
2019-06-08T05:51:13.309Z,99.99
2019-06-08T05:52:18.851Z,99.99
2019-06-08T05:53:24.390Z,99.99
2019-06-08T05:54:29.936Z,99.99
2019-06-08T05:55:35.475Z,99.99
2019-06-08T05:56:41.940Z,99.99
2019-06-08T05:57:46.557Z,99.99
2019-06-08T05:58:52.100Z,99.99
2019-06-08T05:59:57.642Z,99.99
2019-06-08T06:01:03.183Z,99.99
2019-06-08T06:02:08.725Z,99.99
2019-06-08T06:03:14.269Z,99.99
2019-06-08T06:04:19.806Z,99.99
2019-06-08T06:05:25.351Z,99.58
2019-06-08T06:06:30.895Z,99.68
2019-06-08T06:07:36.436Z,99.99
2019-06-08T06:08:42.491Z,98.96
2019-06-08T06:09:48.787Z,99.99
2019-06-08T06:10:53.056Z,98.67
2019-06-08T06:11:58.598Z,98.29
2019-06-08T06:13:04.136Z,98.38
2019-06-08T06:14:09.682Z,97.91
2019-06-08T06:15:15.219Z,98.10
2019-06-08T06:16:20.797Z,98.48
2019-06-08T06:17:26.309Z,97.52
2019-06-08T06:18:31.848Z,97.81
2019-06-08T06:19:37.387Z,98.05
2019-06-08T06:20:43.379Z,98.72
2019-06-08T06:21:49.221Z,97.42
2019-06-08T06:22:54.019Z,97.61
2019-06-08T06:23:59.559Z,99.82
2019-06-08T06:25:05.097Z,99.24
2019-06-08T06:26:10.637Z,99.10
2019-06-08T06:27:16.185Z,99.01
2019-06-08T06:28:21.722Z,99.48
2019-06-08T06:29:27.259Z,98.91
2019-06-08T06:30:32.806Z,99.01
2019-06-08T06:31:38.343Z,99.29
2019-06-08T06:32:43.914Z,99.29
2019-06-08T06:33:50.086Z,98.91
2019-06-08T06:34:54.969Z,99.99
2019-06-08T06:36:00.506Z,99.99
2019-06-08T06:37:06.049Z,99.96
2019-06-08T06:38:11.593Z,99.99
2019-06-08T06:39:17.129Z,99.87
2019-06-08T06:40:22.680Z,99.63
2019-06-08T06:41:28.215Z,99.82
2019-06-08T06:42:33.756Z,99.34
2019-06-08T06:43:39.297Z,98.96
2019-06-08T06:44:45.755Z,98.48
2019-06-08T06:45:50.383Z,98.67
2019-06-08T06:46:55.920Z,98.91
2019-06-08T06:48:01.464Z,98.82
2019-06-08T06:49:07.003Z,98.05
2019-06-08T06:50:12.543Z,98.72
2019-06-08T06:51:26.161Z,98.00
2019-06-08T06:52:23.628Z,95.98
2019-06-08T06:53:29.174Z,96.94
2019-06-08T06:54:34.710Z,96.94
2019-06-08T06:55:40.251Z,96.03
2019-06-08T06:56:45.792Z,96.70
2019-06-08T06:57:51.582Z,96.80
2019-06-08T06:58:56.877Z,96.42
2019-06-08T07:00:02.419Z,94.73
2019-06-08T07:01:07.959Z,96.47
2019-06-08T07:02:13.499Z,96.47
2019-06-08T07:03:19.042Z,93.19
2019-06-08T07:04:24.590Z,93.29
2019-06-08T07:05:30.125Z,93.63
2019-06-08T07:06:35.664Z,92.10
2019-06-08T07:07:41.207Z,93.25
2019-06-08T07:08:46.748Z,93.73
2019-06-08T07:09:52.720Z,92.86
2019-06-08T07:10:57.834Z,94.69
2019-06-08T07:12:03.373Z,93.44
2019-06-08T07:13:08.917Z,92.72
2019-06-08T07:14:14.457Z,93.44
2019-06-08T07:15:19.997Z,93.10
2019-06-08T07:16:25.540Z,93.87
2019-06-08T07:17:31.083Z,93.15
2019-06-08T07:18:36.630Z,93.63
2019-06-08T07:19:42.164Z,92.72
2019-06-08T07:20:48.130Z,92.86
2019-06-08T07:21:54.746Z,93.82
2019-06-08T07:22:59.078Z,93.15
2019-06-08T07:24:04.337Z,93.49
2019-06-08T07:25:09.876Z,92.05
2019-06-08T07:26:15.420Z,92.14
2019-06-08T07:27:20.978Z,91.85
2019-06-08T07:28:26.499Z,90.03
2019-06-08T07:29:32.044Z,91.66
2019-06-08T07:30:37.593Z,92.05
2019-06-08T07:31:43.129Z,90.99
2019-06-08T07:32:49.180Z,90.45
2019-06-08T07:33:55.695Z,91.32
2019-06-08T07:34:59.756Z,91.42
2019-06-08T07:36:05.294Z,92.09
2019-06-08T07:37:10.851Z,90.75
2019-06-08T07:38:16.376Z,89.88
2019-06-08T07:41:04.620Z,92.52
2019-06-08T07:42:10.143Z,90.17
2019-06-08T07:44:08.582Z,91.32
2019-06-08T07:45:14.118Z,92.33
2019-06-08T07:47:24.143Z,92.52
2019-06-08T07:48:29.670Z,88.59
2019-06-08T07:49:35.211Z,90.41
2019-06-08T07:50:40.752Z,89.36
2019-06-08T07:51:58.872Z,89.69
2019-06-08T07:52:52.867Z,89.40
2019-06-08T07:53:57.382Z,91.03
2019-06-08T07:55:02.916Z,90.45
2019-06-08T07:56:08.459Z,88.53
2019-06-08T07:57:13.998Z,88.53
2019-06-08T07:58:19.538Z,88.92
2019-06-08T07:59:25.084Z,88.53
2019-06-08T08:00:30.696Z,89.69
2019-06-08T08:01:36.784Z,91.36
2019-06-08T08:02:41.705Z,89.54
2019-06-08T08:03:47.938Z,91.08
2019-06-08T08:04:52.790Z,88.87
2019-06-08T08:05:58.643Z,89.54
2019-06-08T08:07:03.870Z,89.92
2019-06-08T08:08:09.414Z,87.23
2019-06-08T08:09:14.953Z,86.94
2019-06-08T08:10:20.499Z,86.08
2019-06-08T08:11:26.032Z,88.10
2019-06-08T08:12:31.581Z,87.23
2019-06-08T08:13:37.126Z,89.15
2019-06-08T08:14:42.658Z,86.36
2019-06-08T08:15:49.057Z,87.42
2019-06-08T08:16:54.937Z,85.02
2019-06-08T08:17:59.654Z,86.56
2019-06-08T08:19:04.822Z,87.23
2019-06-08T08:20:10.373Z,87.62
2019-06-08T08:21:23.140Z,85.78
2019-06-08T08:22:25.853Z,85.88
2019-06-08T08:23:27.457Z,84.87
2019-06-08T08:24:32.532Z,85.60
2019-06-08T08:25:38.077Z,85.11
2019-06-08T08:26:43.618Z,83.67
2019-06-08T08:27:50.304Z,86.46
2019-06-08T08:28:55.263Z,84.63
2019-06-08T08:30:01.793Z,85.60
2019-06-08T08:31:07.900Z,88.57
2019-06-08T08:32:11.333Z,86.27
2019-06-08T08:33:18.382Z,86.85
2019-06-08T08:34:22.417Z,86.08
2019-06-08T08:35:28.124Z,87.33
2019-06-08T08:36:33.579Z,85.65
2019-06-08T08:37:39.048Z,86.52
2019-06-08T08:38:44.585Z,86.52
2019-06-08T08:39:51.512Z,85.94
2019-06-08T08:40:59.362Z,87.29
2019-06-08T08:42:04.848Z,87.29
2019-06-08T08:43:06.764Z,87.48
2019-06-08T08:44:12.299Z,86.90
2019-06-08T08:45:18.318Z,86.80
2019-06-08T08:46:23.381Z,85.55
2019-06-08T08:49:13.110Z,87.19
2019-06-08T08:50:18.369Z,85.84
2019-06-08T08:51:23.180Z,86.52
2019-06-08T08:52:36.396Z,86.32
2019-06-08T08:53:34.269Z,86.52
2019-06-08T08:54:42.670Z,84.78
2019-06-08T08:55:45.343Z,86.94
2019-06-08T08:56:54.729Z,86.56
2019-06-08T08:57:58.753Z,85.02
2019-06-08T08:59:02.893Z,86.65
2019-06-08T09:00:08.591Z,86.56
2019-06-08T09:01:13.056Z,83.67
2019-06-08T09:02:21.226Z,82.14
2019-06-08T09:03:29.429Z,81.84
2019-06-08T09:04:29.679Z,81.94
2019-06-08T09:05:35.222Z,80.40
2019-06-08T09:06:40.764Z,82.86
2019-06-08T09:07:48.286Z,81.99
2019-06-08T09:08:52.566Z,81.46
2019-06-08T09:10:00.449Z,82.81
2019-06-08T09:11:03.782Z,83.48
2019-06-08T09:12:08.493Z,80.88
2019-06-08T09:13:14.010Z,80.63
2019-06-08T09:14:19.558Z,81.50
2019-06-08T09:15:25.088Z,83.33
2019-06-08T09:16:30.634Z,80.73
2019-06-08T09:17:38.574Z,79.00
2019-06-08T09:18:41.713Z,75.82
2019-06-08T09:19:48.074Z,77.94
2019-06-08T09:20:53.872Z,76.46
2019-06-08T09:22:00.435Z,77.71
2019-06-08T09:23:14.698Z,75.69
2019-06-08T09:24:09.646Z,74.73
2019-06-08T09:25:14.986Z,78.53
2019-06-08T09:26:20.530Z,80.46
2019-06-08T09:27:27.979Z,77.92
2019-06-08T09:28:31.599Z,79.07
2019-06-08T09:29:38.858Z,79.27
2019-06-08T09:30:42.678Z,80.90
2019-06-08T09:31:49.034Z,84.21
2019-06-08T09:32:54.413Z,80.27
2019-06-08T09:34:08.321Z,79.30
2019-06-08T09:35:04.945Z,79.21
2019-06-08T09:36:10.390Z,78.11
2019-06-08T09:37:18.338Z,78.78
2019-06-08T09:38:21.474Z,78.78
2019-06-08T09:39:28.633Z,79.17
2019-06-08T09:40:32.773Z,79.65
2019-06-08T09:41:38.161Z,79.17
2019-06-08T09:42:43.644Z,79.30
2019-06-08T09:43:49.186Z,76.42
2019-06-08T09:44:55.418Z,77.29
2019-06-08T09:46:02.095Z,77.29
2019-06-08T09:47:12.096Z,77.09
2019-06-08T09:48:11.374Z,76.61
2019-06-08T09:49:18.822Z,78.09
2019-06-08T09:50:22.436Z,75.69
2019-06-08T09:51:28.628Z,74.92
2019-06-08T09:52:33.521Z,78.48
2019-06-08T09:53:41.729Z,73.25
2019-06-08T09:54:44.621Z,71.91
2019-06-08T09:55:50.159Z,74.21
2019-06-08T09:56:55.817Z,72.38
2019-06-08T09:58:05.097Z,75.04
2019-06-08T09:59:10.449Z,73.92
2019-06-08T10:00:18.085Z,72.29
2019-06-08T10:01:18.476Z,71.87
2019-06-08T10:02:23.413Z,71.81
2019-06-08T10:03:30.806Z,70.14
2019-06-08T10:04:34.487Z,73.60
2019-06-08T10:05:40.024Z,72.06
2019-06-08T10:06:47.812Z,73.79
2019-06-08T10:07:51.115Z,73.08
2019-06-08T10:08:56.651Z,75.23
2019-06-08T10:10:03.072Z,74.46
2019-06-08T10:11:09.743Z,74.46
2019-06-08T10:12:13.277Z,78.88
2019-06-08T10:13:19.091Z,76.39
2019-06-08T10:14:24.396Z,78.25
2019-06-08T10:15:29.913Z,76.52
2019-06-08T10:16:38.005Z,79.88
2019-06-08T10:17:41.011Z,76.65
2019-06-08T10:18:51.154Z,77.42
2019-06-08T10:19:52.088Z,80.54
2019-06-08T10:21:00.657Z,75.92
2019-06-08T10:22:03.168Z,68.32
2019-06-08T10:23:27.080Z,68.90
2019-06-08T10:24:14.245Z,67.71
2019-06-08T10:25:19.777Z,68.86
2019-06-08T10:26:27.817Z,71.75
2019-06-08T10:27:30.882Z,69.21
2019-06-08T10:28:38.884Z,73.15
2019-06-08T10:29:41.957Z,71.42
2019-06-08T10:30:48.544Z,71.61
2019-06-08T10:31:53.059Z,72.67
2019-06-08T10:33:01.784Z,73.11
2019-06-08T10:34:05.612Z,75.23
2019-06-08T10:35:10.438Z,75.23
2019-06-08T10:36:15.203Z,74.65
2019-06-08T10:37:20.759Z,78.59
2019-06-08T10:38:28.796Z,77.19
2019-06-08T10:39:31.827Z,77.58
2019-06-08T10:40:38.335Z,76.36
2019-06-08T10:41:42.914Z,75.24
2019-06-08T10:42:48.461Z,70.72
2019-06-08T10:43:54.002Z,73.13
2019-06-08T10:45:04.326Z,73.94
2019-06-08T10:46:09.992Z,66.71
2019-06-08T10:47:11.987Z,70.28
2019-06-08T10:48:17.924Z,68.80
2019-06-08T10:49:21.707Z,70.92
2019-06-08T10:50:28.811Z,72.55
2019-06-08T10:51:32.790Z,71.78
2019-06-08T10:52:39.137Z,71.94
2019-06-08T10:53:49.132Z,67.51
2019-06-08T10:54:49.430Z,67.51
2019-06-08T10:55:54.960Z,71.23
2019-06-08T10:57:04.109Z,71.33
2019-06-08T10:58:07.274Z,71.14
2019-06-08T10:59:12.263Z,72.86
2019-06-08T11:00:21.841Z,75.56
2019-06-08T11:01:22.689Z,74.11
2019-06-08T11:02:28.396Z,73.83
2019-06-08T11:03:33.763Z,75.07
2019-06-08T11:04:43.186Z,74.21
2019-06-08T11:05:44.839Z,74.11
2019-06-08T11:06:50.391Z,72.25
2019-06-08T11:07:58.834Z,72.34
2019-06-08T11:09:04.223Z,73.79
2019-06-08T11:10:10.841Z,69.56
2019-06-08T11:11:12.589Z,68.83
2019-06-08T11:12:18.453Z,69.98
2019-06-08T11:13:23.628Z,71.14
2019-06-08T11:14:29.198Z,70.65
2019-06-08T11:15:34.723Z,69.21
2019-06-08T11:16:40.264Z,68.25
2019-06-08T11:17:45.797Z,69.12
2019-06-08T11:18:51.366Z,71.61
2019-06-08T11:19:59.378Z,71.14
2019-06-08T11:21:03.639Z,72.09
2019-06-08T11:22:13.870Z,69.98
2019-06-08T11:23:13.519Z,71.87
2019-06-08T11:24:24.595Z,72.34
2019-06-08T11:25:24.592Z,69.66
2019-06-08T11:26:30.142Z,72.41
2019-06-08T11:27:35.677Z,70.49
2019-06-08T11:28:41.218Z,72.89
2019-06-08T11:29:47.719Z,75.00
2019-06-08T11:30:52.306Z,77.50
2019-06-08T11:33:30.500Z,77.59
2019-06-08T11:34:37.475Z,73.66
2019-06-08T11:36:45.374Z,76.82
2019-06-08T11:37:50.890Z,74.52
2019-06-08T11:40:00.401Z,76.34
2019-06-08T11:41:09.584Z,77.59
2019-06-08T11:43:15.471Z,72.31
2019-06-08T11:44:20.981Z,74.43
2019-06-08T11:45:26.530Z,72.02
2019-06-08T11:46:32.069Z,72.99
2019-06-08T11:47:39.170Z,73.98
2019-06-08T11:48:43.149Z,71.29
2019-06-08T11:49:50.067Z,72.44
2019-06-08T11:50:54.222Z,76.71
2019-06-08T11:52:00.457Z,76.81
2019-06-08T11:53:07.157Z,76.61
2019-06-08T11:54:27.119Z,73.67
2019-06-08T11:55:18.114Z,74.73
2019-06-08T11:56:21.925Z,69.24
2019-06-08T11:57:28.325Z,67.71
2019-06-08T11:58:33.006Z,69.06
2019-06-08T11:59:38.550Z,70.59
2019-06-08T12:00:44.091Z,72.74
2019-06-08T12:01:50.482Z,71.59
2019-06-08T12:02:55.172Z,72.74
2019-06-08T12:04:01.581Z,67.03
2019-06-08T12:05:08.695Z,67.13
2019-06-08T12:06:14.127Z,66.81
2019-06-08T12:07:17.337Z,68.44
2019-06-08T12:08:22.876Z,67.58
2019-06-08T12:09:28.742Z,68.15
2019-06-08T12:10:33.987Z,71.61
2019-06-08T12:11:39.506Z,73.63
2019-06-08T12:12:45.039Z,71.65
2019-06-08T12:13:50.579Z,70.59
2019-06-08T12:14:58.207Z,66.84
2019-06-08T12:16:02.961Z,68.96
2019-06-08T12:17:10.843Z,69.24
2019-06-08T12:18:14.068Z,70.17
2019-06-08T12:19:20.802Z,68.67
2019-06-08T12:20:24.510Z,68.25
2019-06-08T12:21:29.368Z,68.44
2019-06-08T12:22:34.910Z,68.92
2019-06-08T12:23:40.449Z,67.19
2019-06-08T12:24:45.991Z,67.96
2019-06-08T12:25:51.527Z,69.60
2019-06-08T12:27:08.016Z,68.83
2019-06-08T12:28:02.611Z,69.50
2019-06-08T12:29:09.943Z,72.48
2019-06-08T12:30:20.527Z,72.19
2019-06-08T12:31:22.273Z,68.15
2019-06-08T12:32:24.785Z,71.26
2019-06-08T12:33:30.760Z,71.17
2019-06-08T12:34:38.222Z,70.11
2019-06-08T12:35:41.410Z,68.60
2019-06-08T12:36:48.089Z,68.32
2019-06-08T12:37:52.489Z,67.93
2019-06-08T12:38:58.613Z,68.51
2019-06-08T12:40:03.574Z,71.20
2019-06-08T12:41:11.049Z,71.30
2019-06-08T12:42:20.010Z,71.72
2019-06-08T12:43:20.406Z,70.28
2019-06-08T12:44:28.923Z,70.86
2019-06-08T12:45:31.286Z,69.89
2019-06-08T12:46:40.869Z,71.34
2019-06-08T12:47:42.379Z,70.95
2019-06-08T12:48:47.915Z,69.60
2019-06-08T12:49:53.459Z,67.68
2019-06-08T12:50:58.999Z,68.93
2019-06-08T12:52:04.540Z,67.49
2019-06-08T12:53:14.464Z,68.74
2019-06-08T12:54:16.867Z,70.09
2019-06-08T12:55:25.056Z,67.74
2019-06-08T12:56:28.602Z,66.78
2019-06-08T12:57:32.250Z,68.80
2019-06-08T12:58:38.684Z,67.07
2019-06-08T12:59:45.435Z,66.39
2019-06-08T13:00:48.881Z,65.43
2019-06-08T13:01:54.421Z,68.80
2019-06-08T13:02:59.965Z,65.63
2019-06-08T13:04:05.507Z,66.78
2019-06-08T13:05:13.928Z,66.97
2019-06-08T13:06:18.318Z,66.62
2019-06-08T13:07:22.135Z,68.54
2019-06-08T13:08:28.652Z,68.35
2019-06-08T13:09:33.222Z,71.37
2019-06-08T13:10:38.768Z,69.73
2019-06-08T13:11:44.307Z,68.68
2019-06-08T13:12:49.844Z,67.23
2019-06-08T13:13:55.389Z,70.31
2019-06-08T13:15:00.930Z,72.63
2019-06-08T13:16:06.476Z,67.33
2019-06-08T13:17:13.113Z,66.27
2019-06-08T13:18:19.820Z,64.12
2019-06-08T13:19:23.104Z,65.75
2019-06-08T13:20:28.652Z,66.62
2019-06-08T13:21:35.563Z,67.29
2019-06-08T13:22:39.729Z,65.24
2019-06-08T13:23:45.275Z,68.51
2019-06-08T13:24:50.814Z,64.95
2019-06-08T13:25:56.356Z,65.63
2019-06-08T13:27:01.901Z,67.07
2019-06-08T13:28:12.227Z,65.72
2019-06-08T13:29:13.759Z,67.16
2019-06-08T13:30:23.344Z,67.16
2019-06-08T13:31:24.735Z,67.26
2019-06-08T13:32:29.612Z,65.24
2019-06-08T13:33:35.151Z,67.26
2019-06-08T13:34:40.697Z,68.60
2019-06-08T13:35:48.039Z,68.03
2019-06-08T13:36:51.781Z,68.93
2019-06-08T13:37:57.639Z,64.89
2019-06-08T13:39:02.869Z,64.02
2019-06-08T13:40:08.414Z,63.92
2019-06-08T13:41:14.971Z,63.34
2019-06-08T13:42:21.839Z,64.89
2019-06-08T13:43:25.039Z,64.69
2019-06-08T13:44:30.582Z,65.05
2019-06-08T13:45:39.041Z,65.24
2019-06-08T13:46:41.669Z,66.68
2019-06-08T13:47:50.229Z,68.99
2019-06-08T13:48:52.755Z,68.22
2019-06-08T13:49:58.291Z,68.32
2019-06-08T13:51:03.836Z,67.26
2019-06-08T13:52:09.380Z,65.63
2019-06-08T13:53:17.912Z,65.14
2019-06-08T13:54:22.581Z,66.49
2019-06-08T13:55:42.244Z,66.49
2019-06-08T13:56:31.569Z,65.72
2019-06-08T13:57:37.956Z,66.84
2019-06-08T13:58:42.635Z,64.82
2019-06-08T13:59:48.426Z,64.43
2019-06-08T14:00:56.594Z,65.20
2019-06-08T14:01:59.263Z,63.18
2019-06-08T14:03:04.801Z,66.74
2019-06-08T14:04:10.346Z,65.11
2019-06-08T14:05:21.058Z,66.65
2019-06-08T14:06:22.186Z,66.04
2019-06-08T14:07:31.696Z,65.30
2019-06-08T14:08:33.154Z,65.59
2019-06-08T14:09:38.339Z,67.03
2019-06-08T14:10:43.597Z,65.88
2019-06-08T14:11:49.138Z,66.65
2019-06-08T14:12:54.683Z,67.51
2019-06-08T14:14:01.328Z,65.01
2019-06-08T14:15:05.777Z,66.68
2019-06-08T14:16:11.703Z,66.01